sensor_id;sensor_type;location;lat;lon;timestamp;pressure;altitude;pressure_sealevel;temperature;humidity
47742;BME280;33504;52.066;6.096;2023-04-27T00:02:23;102039.24;;;6.08;41.71
47742;BME280;33504;52.066;6.096;2023-04-27T00:04:50;102037.59;;;6.06;41.61
47742;BME280;33504;52.066;6.096;2023-04-27T00:07:19;102041.40;;;6.03;41.56
47742;BME280;33504;52.066;6.096;2023-04-27T00:09:46;102044.21;;;5.97;41.68
47742;BME280;33504;52.066;6.096;2023-04-27T00:12:13;102043.70;;;6.40;41.62
47742;BME280;33504;52.066;6.096;2023-04-27T00:14:41;102046.71;;;5.84;41.75
47742;BME280;33504;52.066;6.096;2023-04-27T00:17:07;102048.23;;;5.80;41.81
47742;BME280;33504;52.066;6.096;2023-04-27T00:19:34;102045.45;;;5.75;41.84
47742;BME280;33504;52.066;6.096;2023-04-27T00:22:01;102048.86;;;5.69;41.85
47742;BME280;33504;52.066;6.096;2023-04-27T00:24:28;102053.15;;;5.91;41.95
47742;BME280;33504;52.066;6.096;2023-04-27T00:26:55;102057.27;;;5.85;41.82
47742;BME280;33504;52.066;6.096;2023-04-27T00:29:22;102059.06;;;5.80;41.82
47742;BME280;33504;52.066;6.096;2023-04-27T00:31:49;102057.61;;;5.76;42.04
47742;BME280;33504;52.066;6.096;2023-04-27T00:34:16;102057.16;;;5.75;42.03
47742;BME280;33504;52.066;6.096;2023-04-27T00:36:43;102059.67;;;5.93;42.02
47742;BME280;33504;52.066;6.096;2023-04-27T00:39:10;102059.92;;;5.39;42.20
47742;BME280;33504;52.066;6.096;2023-04-27T00:41:37;102058.28;;;5.63;42.23
47742;BME280;33504;52.066;6.096;2023-04-27T00:44:05;102057.78;;;5.61;42.17
47742;BME280;33504;52.066;6.096;2023-04-27T00:46:32;102059.71;;;5.57;42.26
47742;BME280;33504;52.066;6.096;2023-04-27T00:49:00;102057.15;;;5.76;42.40
47742;BME280;33504;52.066;6.096;2023-04-27T00:51:26;102052.32;;;5.51;42.35
47742;BME280;33504;52.066;6.096;2023-04-27T00:53:53;102055.56;;;5.47;42.30
47742;BME280;33504;52.066;6.096;2023-04-27T00:56:20;102057.77;;;5.39;42.38
47742;BME280;33504;52.066;6.096;2023-04-27T00:58:47;102054.84;;;5.07;42.45
47742;BME280;33504;52.066;6.096;2023-04-27T01:01:15;102056.99;;;5.53;42.42
47742;BME280;33504;52.066;6.096;2023-04-27T01:03:41;102058.81;;;5.51;42.27
47742;BME280;33504;52.066;6.096;2023-04-27T01:06:09;102061.54;;;5.45;42.23
47742;BME280;33504;52.066;6.096;2023-04-27T01:08:36;102060.18;;;5.40;42.27
47742;BME280;33504;52.066;6.096;2023-04-27T01:11:03;102061.24;;;5.35;42.41
47742;BME280;33504;52.066;6.096;2023-04-27T01:13:30;102058.60;;;5.52;42.41
47742;BME280;33504;52.066;6.096;2023-04-27T01:15:56;102057.97;;;5.02;42.49
47742;BME280;33504;52.066;6.096;2023-04-27T01:18:24;102062.27;;;5.44;42.47
47742;BME280;33504;52.066;6.096;2023-04-27T01:20:50;102058.36;;;4.93;42.50
47742;BME280;33504;52.066;6.096;2023-04-27T01:23:17;102056.88;;;5.08;42.58
47742;BME280;33504;52.066;6.096;2023-04-27T01:25:44;102055.02;;;5.03;42.49
47742;BME280;33504;52.066;6.096;2023-04-27T01:28:12;102051.81;;;4.99;42.54
47742;BME280;33504;52.066;6.096;2023-04-27T01:30:39;102046.91;;;5.17;42.74
47742;BME280;33504;52.066;6.096;2023-04-27T01:33:05;102042.21;;;4.83;42.97
47742;BME280;33504;52.066;6.096;2023-04-27T01:35:33;102040.35;;;4.86;42.68
47742;BME280;33504;52.066;6.096;2023-04-27T01:38:00;102042.25;;;5.02;42.55
47742;BME280;33504;52.066;6.096;2023-04-27T01:40:27;102045.74;;;4.99;42.37
47742;BME280;33504;52.066;6.096;2023-04-27T01:42:54;102044.25;;;4.92;42.19
47742;BME280;33504;52.066;6.096;2023-04-27T01:45:21;102044.36;;;4.83;42.22
47742;BME280;33504;52.066;6.096;2023-04-27T01:47:49;102048.89;;;4.77;42.60
47742;BME280;33504;52.066;6.096;2023-04-27T01:50:17;102049.62;;;4.47;42.61
47742;BME280;33504;52.066;6.096;2023-04-27T01:52:44;102050.13;;;4.68;42.60
47742;BME280;33504;52.066;6.096;2023-04-27T01:55:10;102048.22;;;4.65;42.77
47742;BME280;33504;52.066;6.096;2023-04-27T01:57:37;102045.96;;;4.89;42.71
47742;BME280;33504;52.066;6.096;2023-04-27T02:00:05;102045.78;;;4.59;42.73
47742;BME280;33504;52.066;6.096;2023-04-27T02:02:33;102049.90;;;4.54;42.84
47742;BME280;33504;52.066;6.096;2023-04-27T02:05:00;102050.74;;;4.77;42.72
47742;BME280;33504;52.066;6.096;2023-04-27T02:07:27;102051.61;;;4.73;42.82
47742;BME280;33504;52.066;6.096;2023-04-27T02:09:53;102045.33;;;4.22;42.94
47742;BME280;33504;52.066;6.096;2023-04-27T02:12:20;102041.68;;;4.43;42.94
47742;BME280;33504;52.066;6.096;2023-04-27T02:14:47;102041.69;;;4.38;43.09
47742;BME280;33504;52.066;6.096;2023-04-27T02:17:14;102038.65;;;4.33;42.96
47742;BME280;33504;52.066;6.096;2023-04-27T02:19:41;102035.86;;;4.60;43.01
47742;BME280;33504;52.066;6.096;2023-04-27T02:22:08;102036.14;;;4.30;42.87
47742;BME280;33504;52.066;6.096;2023-04-27T02:24:35;102039.38;;;4.25;43.04
47742;BME280;33504;52.066;6.096;2023-04-27T02:27:03;102038.09;;;4.22;43.05
47742;BME280;33504;52.066;6.096;2023-04-27T02:29:30;102040.73;;;4.19;43.13
47742;BME280;33504;52.066;6.096;2023-04-27T02:31:57;102037.37;;;4.17;43.17
47742;BME280;33504;52.066;6.096;2023-04-27T02:34:24;102036.73;;;4.42;43.23
47742;BME280;33504;52.066;6.096;2023-04-27T02:36:51;102035.17;;;4.09;43.08
47742;BME280;33504;52.066;6.096;2023-04-27T02:39:18;102033.85;;;4.04;43.12
47742;BME280;33504;52.066;6.096;2023-04-27T02:41:45;102032.66;;;3.96;43.13
47742;BME280;33504;52.066;6.096;2023-04-27T02:44:12;102036.24;;;3.93;43.12
47742;BME280;33504;52.066;6.096;2023-04-27T02:46:39;102041.11;;;3.88;43.23
47742;BME280;33504;52.066;6.096;2023-04-27T02:49:06;102042.67;;;4.08;43.06
47742;BME280;33504;52.066;6.096;2023-04-27T02:51:32;102039.17;;;4.05;43.07
47742;BME280;33504;52.066;6.096;2023-04-27T02:53:59;102036.46;;;4.01;43.15
47742;BME280;33504;52.066;6.096;2023-04-27T02:56:26;102037.30;;;3.98;43.28
47742;BME280;33504;52.066;6.096;2023-04-27T02:58:53;102036.83;;;3.67;43.14
47742;BME280;33504;52.066;6.096;2023-04-27T03:01:20;102036.63;;;3.90;43.02
47742;BME280;33504;52.066;6.096;2023-04-27T03:03:47;102033.17;;;3.82;42.99
47742;BME280;33504;52.066;6.096;2023-04-27T03:06:14;102031.25;;;3.77;43.00
47742;BME280;33504;52.066;6.096;2023-04-27T03:08:41;102027.85;;;3.71;43.06
47742;BME280;33504;52.066;6.096;2023-04-27T03:11:08;102031.83;;;3.68;43.16
47742;BME280;33504;52.066;6.096;2023-04-27T03:13:35;102036.28;;;3.65;43.29
47742;BME280;33504;52.066;6.096;2023-04-27T03:16:02;102042.13;;;3.65;43.51
47742;BME280;33504;52.066;6.096;2023-04-27T03:18:29;102044.41;;;3.89;43.40
47742;BME280;33504;52.066;6.096;2023-04-27T03:21:04;102047.20;;;3.67;43.33
47742;BME280;33504;52.066;6.096;2023-04-27T03:23:31;102051.07;;;3.65;43.45
47742;BME280;33504;52.066;6.096;2023-04-27T03:25:58;102052.97;;;3.64;43.50
47742;BME280;33504;52.066;6.096;2023-04-27T03:28:25;102055.12;;;3.66;43.34
47742;BME280;33504;52.066;6.096;2023-04-27T03:30:52;102050.81;;;3.65;43.32
47742;BME280;33504;52.066;6.096;2023-04-27T03:33:19;102046.33;;;3.67;43.43
47742;BME280;33504;52.066;6.096;2023-04-27T03:35:54;102045.70;;;3.65;43.50
47742;BME280;33504;52.066;6.096;2023-04-27T03:38:21;102046.12;;;3.85;43.48
47742;BME280;33504;52.066;6.096;2023-04-27T03:40:48;102044.60;;;3.82;43.58
47742;BME280;33504;52.066;6.096;2023-04-27T03:43:15;102049.23;;;3.61;43.39
47742;BME280;33504;52.066;6.096;2023-04-27T03:45:42;102055.39;;;3.58;43.30
47742;BME280;33504;52.066;6.096;2023-04-27T03:48:09;102059.63;;;3.57;43.40
47742;BME280;33504;52.066;6.096;2023-04-27T03:50:37;102058.61;;;3.53;43.50
47742;BME280;33504;52.066;6.096;2023-04-27T03:53:04;102062.67;;;3.73;43.48
47742;BME280;33504;52.066;6.096;2023-04-27T03:55:31;102062.36;;;3.72;43.44
47742;BME280;33504;52.066;6.096;2023-04-27T03:57:58;102066.08;;;3.45;43.32
47742;BME280;33504;52.066;6.096;2023-04-27T04:00:26;102069.69;;;3.37;43.38
47742;BME280;33504;52.066;6.096;2023-04-27T04:02:52;102071.04;;;3.32;43.33
47742;BME280;33504;52.066;6.096;2023-04-27T04:05:20;102070.95;;;3.25;43.64
47742;BME280;33504;52.066;6.096;2023-04-27T04:07:47;102070.86;;;3.46;43.64
47742;BME280;33504;52.066;6.096;2023-04-27T04:10:14;102068.57;;;3.69;43.50
47742;BME280;33504;52.066;6.096;2023-04-27T04:12:41;102067.76;;;3.17;43.38
47742;BME280;33504;52.066;6.096;2023-04-27T04:15:08;102065.59;;;3.65;43.35
47742;BME280;33504;52.066;6.096;2023-04-27T04:17:35;102061.23;;;3.66;43.52
47742;BME280;33504;52.066;6.096;2023-04-27T04:20:02;102060.18;;;3.15;43.30
47742;BME280;33504;52.066;6.096;2023-04-27T04:22:29;102061.35;;;3.33;43.28
47742;BME280;33504;52.066;6.096;2023-04-27T04:24:56;102062.02;;;3.53;43.08
47742;BME280;33504;52.066;6.096;2023-04-27T04:27:23;102057.94;;;3.52;43.35
47742;BME280;33504;52.066;6.096;2023-04-27T04:29:50;102057.83;;;3.19;43.39
47742;BME280;33504;52.066;6.096;2023-04-27T04:32:16;102057.24;;;3.21;43.36
47742;BME280;33504;52.066;6.096;2023-04-27T04:34:47;102055.86;;;2.99;43.23
47742;BME280;33504;52.066;6.096;2023-04-27T04:37:14;102055.47;;;3.22;43.29
47742;BME280;33504;52.066;6.096;2023-04-27T04:39:41;102054.07;;;3.47;43.35
47742;BME280;33504;52.066;6.096;2023-04-27T04:42:08;102054.69;;;3.49;43.47
47742;BME280;33504;52.066;6.096;2023-04-27T04:44:35;102058.66;;;3.02;43.39
47742;BME280;33504;52.066;6.096;2023-04-27T04:47:02;102062.41;;;3.26;43.46
47742;BME280;33504;52.066;6.096;2023-04-27T04:49:28;102063.48;;;3.28;43.62
47742;BME280;33504;52.066;6.096;2023-04-27T04:51:55;102062.82;;;3.57;43.62
47742;BME280;33504;52.066;6.096;2023-04-27T04:54:22;102063.76;;;3.11;43.60
47742;BME280;33504;52.066;6.096;2023-04-27T04:56:49;102066.66;;;3.39;43.59
47742;BME280;33504;52.066;6.096;2023-04-27T04:59:16;102069.59;;;3.22;43.70
47742;BME280;33504;52.066;6.096;2023-04-27T05:01:43;102074.06;;;3.23;44.03
47742;BME280;33504;52.066;6.096;2023-04-27T05:04:10;102074.28;;;3.29;43.90
47742;BME280;33504;52.066;6.096;2023-04-27T05:06:37;102077.62;;;3.32;43.95
47742;BME280;33504;52.066;6.096;2023-04-27T05:09:03;102080.55;;;3.58;43.93
47742;BME280;33504;52.066;6.096;2023-04-27T05:11:30;102087.72;;;3.65;44.03
47742;BME280;33504;52.066;6.096;2023-04-27T05:13:57;102087.67;;;3.46;44.13
47742;BME280;33504;52.066;6.096;2023-04-27T05:16:24;102085.65;;;3.53;44.09
47742;BME280;33504;52.066;6.096;2023-04-27T05:18:51;102086.92;;;3.59;44.13
47742;BME280;33504;52.066;6.096;2023-04-27T05:21:18;102089.63;;;3.39;43.92
47742;BME280;33504;52.066;6.096;2023-04-27T05:23:45;102089.52;;;3.72;43.79
47742;BME280;33504;52.066;6.096;2023-04-27T05:26:12;102084.75;;;3.80;43.67
47742;BME280;33504;52.066;6.096;2023-04-27T05:28:40;102085.52;;;3.88;43.66
47742;BME280;33504;52.066;6.096;2023-04-27T05:31:07;102081.88;;;4.00;43.53
47742;BME280;33504;52.066;6.096;2023-04-27T05:33:34;102084.11;;;4.09;43.57
47742;BME280;33504;52.066;6.096;2023-04-27T05:36:01;102078.22;;;3.93;43.53
47742;BME280;33504;52.066;6.096;2023-04-27T05:38:28;102077.27;;;4.05;43.67
47742;BME280;33504;52.066;6.096;2023-04-27T05:40:57;102078.71;;;4.15;43.73
47742;BME280;33504;52.066;6.096;2023-04-27T05:43:25;102082.70;;;4.55;43.80
47742;BME280;33504;52.066;6.096;2023-04-27T05:45:52;102082.00;;;4.67;43.90
47742;BME280;33504;52.066;6.096;2023-04-27T05:48:19;102082.46;;;4.52;43.92
47742;BME280;33504;52.066;6.096;2023-04-27T05:50:45;102083.16;;;4.48;43.82
47742;BME280;33504;52.066;6.096;2023-04-27T05:53:13;102086.30;;;4.84;43.97
47742;BME280;33504;52.066;6.096;2023-04-27T05:55:40;102090.49;;;5.25;44.02
47742;BME280;33504;52.066;6.096;2023-04-27T05:58:07;102092.40;;;4.89;43.91
47742;BME280;33504;52.066;6.096;2023-04-27T06:00:34;102093.26;;;5.02;43.88
47742;BME280;33504;52.066;6.096;2023-04-27T06:03:01;102096.05;;;5.36;43.92
47742;BME280;33504;52.066;6.096;2023-04-27T06:05:28;102096.78;;;5.30;43.99
47742;BME280;33504;52.066;6.096;2023-04-27T06:07:55;102098.29;;;5.45;44.09
47742;BME280;33504;52.066;6.096;2023-04-27T06:10:23;102094.19;;;5.62;44.30
47742;BME280;33504;52.066;6.096;2023-04-27T06:12:50;102096.65;;;5.74;44.41
47742;BME280;33504;52.066;6.096;2023-04-27T06:15:17;102089.99;;;5.94;44.42
47742;BME280;33504;52.066;6.096;2023-04-27T06:17:45;102086.92;;;5.62;44.65
47742;BME280;33504;52.066;6.096;2023-04-27T06:20:11;102084.94;;;6.10;44.65
47742;BME280;33504;52.066;6.096;2023-04-27T06:22:38;102083.85;;;5.50;44.80
47742;BME280;33504;52.066;6.096;2023-04-27T06:25:06;102082.97;;;5.95;43.39
47742;BME280;33504;52.066;6.096;2023-04-27T06:27:33;102079.08;;;6.09;43.91
47742;BME280;33504;52.066;6.096;2023-04-27T06:30:01;102077.54;;;5.85;43.67
47742;BME280;33504;52.066;6.096;2023-04-27T06:32:28;102079.08;;;6.58;43.11
47742;BME280;33504;52.066;6.096;2023-04-27T06:34:55;102080.50;;;6.62;42.63
47742;BME280;33504;52.066;6.096;2023-04-27T06:37:22;102085.62;;;6.83;42.37
47742;BME280;33504;52.066;6.096;2023-04-27T06:39:49;102084.64;;;6.87;41.90
47742;BME280;33504;52.066;6.096;2023-04-27T06:42:15;102082.91;;;7.20;41.41
47742;BME280;33504;52.066;6.096;2023-04-27T06:44:42;102079.89;;;7.56;41.21
47742;BME280;33504;52.066;6.096;2023-04-27T06:47:09;102083.02;;;7.47;40.78
47742;BME280;33504;52.066;6.096;2023-04-27T06:49:36;102085.74;;;7.81;40.69
47742;BME280;33504;52.066;6.096;2023-04-27T06:52:04;102087.19;;;7.87;40.66
47742;BME280;33504;52.066;6.096;2023-04-27T06:54:31;102091.61;;;8.57;40.67
47742;BME280;33504;52.066;6.096;2023-04-27T06:56:58;102089.02;;;8.66;40.74
47742;BME280;33504;52.066;6.096;2023-04-27T06:59:25;102089.16;;;8.66;40.28
47742;BME280;33504;52.066;6.096;2023-04-27T07:01:52;102089.77;;;8.87;39.87
47742;BME280;33504;52.066;6.096;2023-04-27T07:04:19;102087.72;;;9.13;38.86
47742;BME280;33504;52.066;6.096;2023-04-27T07:06:45;102090.48;;;9.29;39.24
47742;BME280;33504;52.066;6.096;2023-04-27T07:09:12;102090.43;;;9.12;39.46
47742;BME280;33504;52.066;6.096;2023-04-27T07:11:39;102088.98;;;9.06;39.40
47742;BME280;33504;52.066;6.096;2023-04-27T07:14:06;102088.72;;;9.61;38.45
47742;BME280;33504;52.066;6.096;2023-04-27T07:16:33;102088.42;;;9.35;38.37
47742;BME280;33504;52.066;6.096;2023-04-27T07:19:00;102086.82;;;9.73;38.88
47742;BME280;33504;52.066;6.096;2023-04-27T07:21:27;102090.78;;;9.79;37.93
47742;BME280;33504;52.066;6.096;2023-04-27T07:23:53;102094.17;;;9.92;37.55
47742;BME280;33504;52.066;6.096;2023-04-27T07:26:21;102099.63;;;10.39;37.24
47742;BME280;33504;52.066;6.096;2023-04-27T07:28:48;102098.74;;;10.39;37.18
47742;BME280;33504;52.066;6.096;2023-04-27T07:31:15;102101.01;;;10.21;36.53
47742;BME280;33504;52.066;6.096;2023-04-27T07:33:42;102101.02;;;10.25;36.84
47742;BME280;33504;52.066;6.096;2023-04-27T07:36:09;102108.72;;;10.52;36.80
47742;BME280;33504;52.066;6.096;2023-04-27T07:38:35;102111.26;;;10.59;36.68
47742;BME280;33504;52.066;6.096;2023-04-27T07:41:03;102113.95;;;11.02;36.09
47742;BME280;33504;52.066;6.096;2023-04-27T07:43:30;102114.16;;;10.93;35.77
47742;BME280;33504;52.066;6.096;2023-04-27T07:45:58;102115.00;;;11.22;34.93
47742;BME280;33504;52.066;6.096;2023-04-27T07:48:24;102113.72;;;11.26;35.20
47742;BME280;33504;52.066;6.096;2023-04-27T07:50:51;102114.46;;;11.62;34.44
47742;BME280;33504;52.066;6.096;2023-04-27T07:53:19;102116.97;;;11.82;34.49
47742;BME280;33504;52.066;6.096;2023-04-27T07:55:46;102114.96;;;12.09;33.56
47742;BME280;33504;52.066;6.096;2023-04-27T07:58:12;102110.69;;;11.48;33.40
47742;BME280;33504;52.066;6.096;2023-04-27T08:00:39;102105.00;;;11.70;33.52
47742;BME280;33504;52.066;6.096;2023-04-27T08:03:07;102108.91;;;11.76;33.18
47742;BME280;33504;52.066;6.096;2023-04-27T08:05:34;102107.71;;;12.40;32.83
47742;BME280;33504;52.066;6.096;2023-04-27T08:08:01;102103.67;;;12.41;31.97
47742;BME280;33504;52.066;6.096;2023-04-27T08:10:28;102104.91;;;12.63;31.95
47742;BME280;33504;52.066;6.096;2023-04-27T08:12:55;102100.20;;;12.61;31.81
47742;BME280;33504;52.066;6.096;2023-04-27T08:15:23;102100.19;;;12.80;31.95
47742;BME280;33504;52.066;6.096;2023-04-27T08:17:49;102100.22;;;13.06;31.67
47742;BME280;33504;52.066;6.096;2023-04-27T08:20:16;102096.43;;;13.42;30.79
47742;BME280;33504;52.066;6.096;2023-04-27T08:22:43;102091.89;;;13.73;30.02
47742;BME280;33504;52.066;6.096;2023-04-27T08:25:10;102088.72;;;13.49;29.86
47742;BME280;33504;52.066;6.096;2023-04-27T08:27:37;102090.58;;;13.55;29.53
47742;BME280;33504;52.066;6.096;2023-04-27T08:30:05;102090.00;;;13.52;29.03
47742;BME280;33504;52.066;6.096;2023-04-27T08:32:32;102092.77;;;14.09;29.01
47742;BME280;33504;52.066;6.096;2023-04-27T08:34:58;102090.24;;;13.81;27.72
47742;BME280;33504;52.066;6.096;2023-04-27T08:37:25;102090.63;;;14.23;28.29
47742;BME280;33504;52.066;6.096;2023-04-27T08:39:52;102091.65;;;14.21;28.21
47742;BME280;33504;52.066;6.096;2023-04-27T08:42:19;102092.41;;;13.56;27.08
47742;BME280;33504;52.066;6.096;2023-04-27T08:44:46;102089.77;;;14.53;27.98
47742;BME280;33504;52.066;6.096;2023-04-27T08:47:13;102088.97;;;14.58;25.74
47742;BME280;33504;52.066;6.096;2023-04-27T08:49:41;102081.66;;;14.10;26.67
47742;BME280;33504;52.066;6.096;2023-04-27T08:52:11;102084.17;;;14.33;27.33
47742;BME280;33504;52.066;6.096;2023-04-27T08:54:39;102083.45;;;14.45;26.41
47742;BME280;33504;52.066;6.096;2023-04-27T08:57:10;102089.09;;;14.05;25.33
47742;BME280;33504;52.066;6.096;2023-04-27T08:59:37;102089.94;;;14.79;24.55
47742;BME280;33504;52.066;6.096;2023-04-27T09:02:04;102083.19;;;14.34;25.75
47742;BME280;33504;52.066;6.096;2023-04-27T09:04:39;102083.89;;;14.71;26.05
47742;BME280;33504;52.066;6.096;2023-04-27T09:07:14;102079.16;;;14.69;25.46
47742;BME280;33504;52.066;6.096;2023-04-27T09:09:41;102080.76;;;14.77;25.15
47742;BME280;33504;52.066;6.096;2023-04-27T09:12:17;102081.68;;;15.79;25.06
47742;BME280;33504;52.066;6.096;2023-04-27T09:14:55;102080.90;;;15.62;24.15
47742;BME280;33504;52.066;6.096;2023-04-27T09:17:25;102083.34;;;15.33;24.00
47742;BME280;33504;52.066;6.096;2023-04-27T09:20:03;102081.08;;;15.15;24.71
47742;BME280;33504;52.066;6.096;2023-04-27T09:22:30;102077.83;;;15.62;23.92
47742;BME280;33504;52.066;6.096;2023-04-27T09:24:57;102075.36;;;15.90;23.88
47742;BME280;33504;52.066;6.096;2023-04-27T09:27:23;102077.28;;;15.88;24.15
47742;BME280;33504;52.066;6.096;2023-04-27T09:29:51;102077.28;;;15.82;23.05
47742;BME280;33504;52.066;6.096;2023-04-27T09:32:18;102076.11;;;16.06;23.05
47742;BME280;33504;52.066;6.096;2023-04-27T09:34:45;102077.50;;;15.53;22.97
47742;BME280;33504;52.066;6.096;2023-04-27T09:37:13;102072.98;;;16.19;23.20
47742;BME280;33504;52.066;6.096;2023-04-27T09:39:41;102066.49;;;16.23;23.61
47742;BME280;33504;52.066;6.096;2023-04-27T09:42:08;102063.74;;;16.19;23.03
47742;BME280;33504;52.066;6.096;2023-04-27T09:44:36;102059.83;;;16.17;23.17
47742;BME280;33504;52.066;6.096;2023-04-27T09:47:04;102056.99;;;17.08;22.73
47742;BME280;33504;52.066;6.096;2023-04-27T09:49:33;102056.41;;;16.70;22.88
47742;BME280;33504;52.066;6.096;2023-04-27T09:52:00;102060.72;;;16.57;22.44
47742;BME280;33504;52.066;6.096;2023-04-27T09:54:29;102059.34;;;16.53;20.66
47742;BME280;33504;52.066;6.096;2023-04-27T09:57:05;102053.28;;;16.76;20.68
47742;BME280;33504;52.066;6.096;2023-04-27T09:59:46;102047.00;;;17.17;20.07
47742;BME280;33504;52.066;6.096;2023-04-27T10:02:18;102052.00;;;16.66;20.97
47742;BME280;33504;52.066;6.096;2023-04-27T10:05:07;102052.72;;;16.59;21.18
47742;BME280;33504;52.066;6.096;2023-04-27T10:07:39;102054.24;;;16.23;21.12
47742;BME280;33504;52.066;6.096;2023-04-27T10:10:15;102051.63;;;16.64;21.88
47742;BME280;33504;52.066;6.096;2023-04-27T10:12:42;102052.30;;;16.57;22.49
47742;BME280;33504;52.066;6.096;2023-04-27T10:15:13;102046.60;;;17.36;22.56
47742;BME280;33504;52.066;6.096;2023-04-27T10:17:48;102050.72;;;16.93;22.27
47742;BME280;33504;52.066;6.096;2023-04-27T10:20:15;102042.65;;;17.15;21.50
47742;BME280;33504;52.066;6.096;2023-04-27T10:22:44;102039.30;;;17.57;21.12
47742;BME280;33504;52.066;6.096;2023-04-27T10:25:17;102030.76;;;17.12;20.93
47742;BME280;33504;52.066;6.096;2023-04-27T10:27:48;102032.18;;;18.09;21.17
47742;BME280;33504;52.066;6.096;2023-04-27T10:30:17;102032.26;;;17.57;21.05
47742;BME280;33504;52.066;6.096;2023-04-27T10:32:55;102030.81;;;17.86;21.04
47742;BME280;33504;52.066;6.096;2023-04-27T10:35:31;102035.55;;;18.07;20.91
47742;BME280;33504;52.066;6.096;2023-04-27T10:38:05;102040.35;;;17.70;20.83
47742;BME280;33504;52.066;6.096;2023-04-27T10:40:32;102040.46;;;17.92;20.81
47742;BME280;33504;52.066;6.096;2023-04-27T10:43:08;102037.14;;;17.97;20.28
47742;BME280;33504;52.066;6.096;2023-04-27T10:45:36;102036.93;;;17.93;21.15
47742;BME280;33504;52.066;6.096;2023-04-27T10:48:04;102031.73;;;18.19;20.90
47742;BME280;33504;52.066;6.096;2023-04-27T10:50:32;102029.91;;;18.61;20.90
47742;BME280;33504;52.066;6.096;2023-04-27T10:53:01;102026.65;;;18.24;19.24
47742;BME280;33504;52.066;6.096;2023-04-27T10:55:29;102023.07;;;18.20;19.71
47742;BME280;33504;52.066;6.096;2023-04-27T10:57:56;102024.18;;;18.26;20.34
47742;BME280;33504;52.066;6.096;2023-04-27T11:00:25;102033.90;;;18.83;20.18
47742;BME280;33504;52.066;6.096;2023-04-27T11:02:52;102030.03;;;18.86;19.81
47742;BME280;33504;52.066;6.096;2023-04-27T11:05:22;102027.64;;;18.57;20.15
47742;BME280;33504;52.066;6.096;2023-04-27T11:07:49;102024.16;;;18.72;20.97
47742;BME280;33504;52.066;6.096;2023-04-27T11:10:17;102022.18;;;19.09;20.32
47742;BME280;33504;52.066;6.096;2023-04-27T11:12:45;102023.66;;;19.45;19.75
47742;BME280;33504;52.066;6.096;2023-04-27T11:15:12;102019.19;;;19.01;19.58
47742;BME280;33504;52.066;6.096;2023-04-27T11:17:39;102017.04;;;18.86;20.44
47742;BME280;33504;52.066;6.096;2023-04-27T11:20:07;102014.24;;;19.43;19.83
47742;BME280;33504;52.066;6.096;2023-04-27T11:22:43;102010.95;;;19.34;20.29
47742;BME280;33504;52.066;6.096;2023-04-27T11:25:10;102010.34;;;19.25;19.81
47742;BME280;33504;52.066;6.096;2023-04-27T11:27:38;102006.68;;;19.68;19.66
47742;BME280;33504;52.066;6.096;2023-04-27T11:30:19;102002.54;;;19.11;18.74
47742;BME280;33504;52.066;6.096;2023-04-27T11:32:46;101993.96;;;18.66;19.10
47742;BME280;33504;52.066;6.096;2023-04-27T11:35:14;101996.11;;;19.04;19.40
47742;BME280;33504;52.066;6.096;2023-04-27T11:37:41;101994.27;;;19.70;18.28
47742;BME280;33504;52.066;6.096;2023-04-27T11:40:11;101989.57;;;19.56;18.48
47742;BME280;33504;52.066;6.096;2023-04-27T11:42:39;101984.52;;;20.22;18.48
47742;BME280;33504;52.066;6.096;2023-04-27T11:45:10;101983.73;;;19.82;17.41
47742;BME280;33504;52.066;6.096;2023-04-27T11:47:39;101980.38;;;20.78;17.44
47742;BME280;33504;52.066;6.096;2023-04-27T11:50:13;101982.96;;;20.21;17.04
47742;BME280;33504;52.066;6.096;2023-04-27T11:52:40;101980.20;;;19.91;17.37
47742;BME280;33504;52.066;6.096;2023-04-27T11:55:08;101978.22;;;20.55;17.21
47742;BME280;33504;52.066;6.096;2023-04-27T11:57:35;101979.25;;;20.66;17.54
47742;BME280;33504;52.066;6.096;2023-04-27T12:00:04;101983.32;;;20.26;17.93
47742;BME280;33504;52.066;6.096;2023-04-27T12:02:31;101978.48;;;21.36;18.18
47742;BME280;33504;52.066;6.096;2023-04-27T12:04:58;101974.60;;;21.31;17.28
47742;BME280;33504;52.066;6.096;2023-04-27T12:07:25;101972.20;;;21.32;17.15
47742;BME280;33504;52.066;6.096;2023-04-27T12:09:53;101971.97;;;20.65;17.03
47742;BME280;33504;52.066;6.096;2023-04-27T12:12:20;101978.28;;;21.42;15.93
47742;BME280;33504;52.066;6.096;2023-04-27T12:14:47;101973.70;;;21.04;16.78
47742;BME280;33504;52.066;6.096;2023-04-27T12:17:14;101973.95;;;21.41;17.44
47742;BME280;33504;52.066;6.096;2023-04-27T12:19:40;101975.43;;;21.64;16.94
47742;BME280;33504;52.066;6.096;2023-04-27T12:22:08;101964.50;;;21.92;16.37
47742;BME280;33504;52.066;6.096;2023-04-27T12:24:35;101961.89;;;21.51;15.95
47742;BME280;33504;52.066;6.096;2023-04-27T12:27:03;101963.89;;;21.02;16.24
47742;BME280;33504;52.066;6.096;2023-04-27T12:29:30;101957.99;;;21.51;17.26
47742;BME280;33504;52.066;6.096;2023-04-27T12:31:58;101954.55;;;21.48;16.07
47742;BME280;33504;52.066;6.096;2023-04-27T12:34:25;101957.02;;;21.48;16.16
47742;BME280;33504;52.066;6.096;2023-04-27T12:36:52;101955.82;;;21.71;16.61
47742;BME280;33504;52.066;6.096;2023-04-27T12:39:20;101953.52;;;21.66;16.38
47742;BME280;33504;52.066;6.096;2023-04-27T12:41:48;101951.84;;;21.90;16.59
47742;BME280;33504;52.066;6.096;2023-04-27T12:44:16;101953.25;;;22.02;16.81
47742;BME280;33504;52.066;6.096;2023-04-27T12:46:44;101955.07;;;21.51;16.30
47742;BME280;33504;52.066;6.096;2023-04-27T12:49:11;101951.83;;;21.82;16.34
47742;BME280;33504;52.066;6.096;2023-04-27T12:51:39;101941.02;;;22.01;15.42
47742;BME280;33504;52.066;6.096;2023-04-27T12:54:08;101938.10;;;21.98;16.39
47742;BME280;33504;52.066;6.096;2023-04-27T12:56:35;101934.89;;;21.98;16.23
47742;BME280;33504;52.066;6.096;2023-04-27T12:59:02;101937.37;;;21.92;16.54